createdAt,value
2018-03-20T00:02:15.062Z,14.93
2018-03-20T00:04:43.403Z,15.63
2018-03-20T00:07:11.758Z,13.33
2018-03-20T00:09:40.117Z,15.47
2018-03-20T00:12:09.294Z,15.30
2018-03-20T00:14:37.629Z,13.20
2018-03-20T00:17:05.961Z,12.57
2018-03-20T00:19:34.323Z,12.67
2018-03-20T00:22:02.668Z,12.23
2018-03-20T00:24:31.053Z,14.33
2018-03-20T00:26:59.395Z,11.33
2018-03-20T00:29:27.753Z,15.37
2018-03-20T00:31:56.921Z,14.30
2018-03-20T00:34:25.268Z,13.20
2018-03-20T00:36:53.612Z,10.73
2018-03-20T00:39:22.747Z,11.97
2018-03-20T00:41:51.872Z,14.63
2018-03-20T00:44:20.196Z,14.90
2018-03-20T00:46:48.556Z,12.83
2018-03-20T00:49:17.667Z,13.33
2018-03-20T00:51:46.031Z,10.87
2018-03-20T00:54:14.439Z,13.13
2018-03-20T00:56:42.807Z,12.07
2018-03-20T00:59:11.134Z,12.30
2018-03-20T01:01:39.549Z,12.37
2018-03-20T01:04:07.899Z,12.80
2018-03-20T01:06:36.224Z,16.00
2018-03-20T01:09:05.442Z,12.63
2018-03-20T01:11:33.773Z,12.97
2018-03-20T01:14:02.882Z,10.03
2018-03-20T01:16:31.247Z,10.30
2018-03-20T01:19:00.337Z,12.83
2018-03-20T01:21:29.463Z,12.33
2018-03-20T01:23:57.807Z,11.77
2018-03-20T01:26:26.954Z,12.23
2018-03-20T01:28:55.353Z,11.47
2018-03-20T01:31:23.681Z,10.33
2018-03-20T01:33:52.036Z,14.33
2018-03-20T01:36:21.157Z,11.63
2018-03-20T01:38:49.514Z,13.90
2018-03-20T01:41:18.601Z,19.30
2018-03-20T01:43:47.718Z,13.10
2018-03-20T01:46:16.095Z,11.73
2018-03-20T01:48:44.446Z,11.97
2018-03-20T01:51:13.569Z,16.20
2018-03-20T01:53:41.906Z,14.57
2018-03-20T01:56:10.301Z,15.50
2018-03-20T01:58:39.389Z,14.07
2018-03-20T02:01:07.708Z,17.93
2018-03-20T02:03:36.077Z,17.40
2018-03-20T02:06:04.450Z,20.80
2018-03-20T02:08:32.791Z,19.53
2018-03-20T02:11:01.161Z,23.67
2018-03-20T02:13:29.522Z,20.90
2018-03-20T02:15:57.891Z,20.33
2018-03-20T02:18:26.236Z,14.87
2018-03-20T02:20:54.592Z,25.10
2018-03-20T02:23:23.724Z,24.73
2018-03-20T02:25:52.097Z,28.50
2018-03-20T02:28:20.443Z,24.87
2018-03-20T02:30:49.615Z,22.07
2018-03-20T02:33:17.964Z,24.70
2018-03-20T02:35:46.297Z,23.83
2018-03-20T02:38:15.433Z,35.23
2018-03-20T02:40:43.780Z,24.90
2018-03-20T02:43:12.154Z,22.80
2018-03-20T02:45:40.523Z,24.53
2018-03-20T02:48:09.666Z,19.73
2018-03-20T02:50:38.012Z,22.60
2018-03-20T02:53:06.392Z,19.90
2018-03-20T02:55:34.773Z,23.83
2018-03-20T02:58:03.114Z,28.50
2018-03-20T03:00:31.469Z,26.83
2018-03-20T03:02:59.864Z,26.20
2018-03-20T03:05:28.226Z,20.70
2018-03-20T03:07:56.598Z,24.33
2018-03-20T03:10:25.000Z,23.83
2018-03-20T03:12:53.345Z,25.67
2018-03-20T03:15:21.690Z,26.77
2018-03-20T03:17:50.068Z,22.70
2018-03-20T03:20:18.406Z,24.87
2018-03-20T03:22:46.782Z,27.87
2018-03-20T03:25:15.121Z,25.53
2018-03-20T03:27:43.500Z,22.77
2018-03-20T03:30:11.844Z,22.70
2018-03-20T03:32:40.966Z,28.27
2018-03-20T03:35:09.345Z,24.83
2018-03-20T03:37:37.756Z,25.13
2018-03-20T03:40:06.097Z,23.67
2018-03-20T03:42:34.448Z,28.73
2018-03-20T03:45:03.641Z,35.40
2018-03-20T03:47:31.973Z,29.67
2018-03-20T03:50:00.332Z,27.87
2018-03-20T03:52:28.693Z,26.17
2018-03-20T03:54:57.061Z,24.87
2018-03-20T03:57:25.439Z,21.87
2018-03-20T03:59:53.775Z,27.83
2018-03-20T04:02:22.205Z,31.57
2018-03-20T04:04:50.555Z,27.70
2018-03-20T04:07:18.903Z,27.93
2018-03-20T04:09:47.286Z,26.80
2018-03-20T04:12:15.614Z,27.87
2018-03-20T04:14:44.002Z,28.20
2018-03-20T04:17:12.342Z,32.87
2018-03-20T04:19:41.450Z,27.03
2018-03-20T04:22:10.623Z,33.00
2018-03-20T04:24:38.973Z,31.03
2018-03-20T04:27:07.307Z,29.20
2018-03-20T04:29:35.697Z,26.10
2018-03-20T04:32:04.038Z,30.70
2018-03-20T04:34:32.384Z,30.47
2018-03-20T04:37:00.737Z,30.03
2018-03-20T04:39:29.095Z,23.90
2018-03-20T04:41:58.253Z,33.60
2018-03-20T04:44:26.597Z,30.30
2018-03-20T04:46:54.944Z,29.50
2018-03-20T04:49:23.328Z,33.23
2018-03-20T04:54:28.696Z,30.27
2018-03-20T04:56:57.024Z,36.17
2018-03-20T04:59:25.393Z,31.93
2018-03-20T05:01:53.717Z,31.00
2018-03-20T05:04:22.083Z,30.50
2018-03-20T05:06:50.448Z,32.30
2018-03-20T05:09:19.579Z,26.43
2018-03-20T05:11:47.931Z,35.63
2018-03-20T05:14:16.367Z,33.07
2018-03-20T05:16:44.742Z,30.80
2018-03-20T05:19:17.671Z,27.70
2018-03-20T05:24:48.307Z,28.57
2018-03-20T05:27:16.667Z,35.47
2018-03-20T05:29:45.037Z,32.23
2018-03-20T05:32:13.435Z,23.50
2018-03-20T05:34:41.859Z,30.83
2018-03-20T05:37:10.240Z,38.47
2018-03-20T05:39:38.605Z,35.07
2018-03-20T05:42:07.004Z,33.47
2018-03-20T05:44:35.416Z,30.20
2018-03-20T05:47:06.311Z,26.03
2018-03-20T05:52:41.249Z,29.97
2018-03-20T05:55:09.636Z,31.17
2018-03-20T05:57:38.047Z,32.63
2018-03-20T06:00:06.410Z,31.33
2018-03-20T06:02:34.760Z,31.20
2018-03-20T06:05:03.222Z,33.87
2018-03-20T06:07:32.335Z,27.47
2018-03-20T06:10:00.688Z,28.40
2018-03-20T06:12:29.076Z,27.33
2018-03-20T06:14:58.191Z,26.93
2018-03-20T06:17:26.597Z,31.30
2018-03-20T06:19:54.958Z,23.60
2018-03-20T06:22:23.349Z,26.13
2018-03-20T06:24:51.701Z,24.97
2018-03-20T06:27:20.130Z,28.00
2018-03-20T06:29:48.505Z,28.23
2018-03-20T06:32:16.857Z,25.57
2018-03-20T06:34:45.254Z,29.57
2018-03-20T06:37:13.608Z,29.83
2018-03-20T06:39:42.020Z,23.27
2018-03-20T06:42:10.379Z,26.50
2018-03-20T06:44:38.773Z,30.57
2018-03-20T06:47:07.129Z,32.53
2018-03-20T06:49:35.481Z,26.80
2018-03-20T06:52:03.889Z,19.70
2018-03-20T06:54:32.269Z,17.33
2018-03-20T06:57:00.646Z,19.87
2018-03-20T06:59:29.017Z,16.27
2018-03-20T07:01:57.473Z,12.40
2018-03-20T07:04:25.838Z,14.03
2018-03-20T07:06:54.996Z,12.00
2018-03-20T07:09:23.385Z,14.67
2018-03-20T07:11:51.777Z,10.30
2018-03-20T07:14:20.168Z,11.23
2018-03-20T07:16:48.541Z,7.80
2018-03-20T07:19:17.711Z,10.80
2018-03-20T07:21:46.074Z,10.23
2018-03-20T07:24:14.445Z,8.60
2018-03-20T07:26:42.812Z,12.60
2018-03-20T07:29:11.156Z,8.90
2018-03-20T07:31:40.468Z,9.50
2018-03-20T07:34:08.812Z,7.30
2018-03-20T07:36:37.976Z,8.30
2018-03-20T07:39:06.311Z,9.53
2018-03-20T07:41:34.697Z,8.30
2018-03-20T07:44:03.099Z,9.47
2018-03-20T07:46:31.488Z,9.37
2018-03-20T07:48:59.880Z,9.83
2018-03-20T07:51:28.285Z,7.23
2018-03-20T07:53:57.383Z,8.63
2018-03-20T07:56:26.480Z,7.63
2018-03-20T07:58:54.855Z,9.23
2018-03-20T08:01:23.995Z,7.07
2018-03-20T08:03:52.349Z,8.50
2018-03-20T08:06:20.719Z,8.87
2018-03-20T08:08:49.130Z,7.17
2018-03-20T08:11:17.492Z,7.20
2018-03-20T08:13:45.879Z,9.00
2018-03-20T08:16:14.253Z,6.77
2018-03-20T08:18:42.661Z,6.93
2018-03-20T08:21:11.022Z,7.63
2018-03-20T08:23:39.369Z,9.23
2018-03-20T08:26:07.762Z,7.87
2018-03-20T08:28:36.115Z,9.37
2018-03-20T08:31:04.525Z,8.10
2018-03-20T08:33:32.877Z,10.20
2018-03-20T08:36:01.270Z,8.50
2018-03-20T08:38:29.685Z,8.83
2018-03-20T08:40:58.136Z,12.73
2018-03-20T08:43:26.544Z,8.90
2018-03-20T08:45:55.010Z,10.73
2018-03-20T08:48:23.399Z,8.10
2018-03-20T08:50:51.834Z,8.43
2018-03-20T08:53:20.242Z,7.43
2018-03-20T08:55:48.643Z,8.60
2018-03-20T08:58:17.019Z,6.67
2018-03-20T09:00:45.528Z,9.23
2018-03-20T09:03:14.045Z,7.63
2018-03-20T09:05:42.504Z,8.57
2018-03-20T09:08:10.936Z,7.50
2018-03-20T09:10:39.419Z,7.70
2018-03-20T09:13:07.874Z,11.03
2018-03-20T09:15:38.085Z,7.23
2018-03-20T09:18:06.518Z,9.47
2018-03-20T09:20:36.209Z,8.47
2018-03-20T09:23:12.129Z,8.73
2018-03-20T09:25:40.611Z,12.60
2018-03-20T09:28:09.048Z,7.10
2018-03-20T09:30:37.494Z,6.70
2018-03-20T09:33:06.463Z,7.00
2018-03-20T09:35:35.094Z,7.90
2018-03-20T09:38:04.413Z,7.20
2018-03-20T09:43:18.791Z,7.90
2018-03-20T09:45:50.432Z,7.10
2018-03-20T09:48:20.945Z,5.87
2018-03-20T09:50:49.578Z,8.50
2018-03-20T09:53:19.802Z,9.40
2018-03-20T09:55:50.149Z,6.23
2018-03-20T09:58:20.548Z,7.50
2018-03-20T10:00:52.330Z,5.67
2018-03-20T10:03:20.815Z,5.00
2018-03-20T10:05:49.248Z,5.07
2018-03-20T10:08:17.643Z,7.13
2018-03-20T10:11:09.294Z,4.40
2018-03-20T10:13:44.126Z,7.17
2018-03-20T10:16:13.349Z,5.63
2018-03-20T10:22:11.383Z,5.27
2018-03-20T10:24:39.883Z,5.30
2018-03-20T10:27:08.492Z,4.97
2018-03-20T10:29:37.866Z,4.20
2018-03-20T10:32:08.313Z,4.83
2018-03-20T10:34:37.300Z,6.17
2018-03-20T10:37:06.063Z,2.90
2018-03-20T10:39:34.946Z,5.00
2018-03-20T10:42:03.920Z,6.83
2018-03-20T10:44:33.303Z,5.33
2018-03-20T10:47:02.010Z,4.53
2018-03-20T10:49:31.951Z,5.57
2018-03-20T10:52:00.953Z,5.00
2018-03-20T10:54:29.845Z,4.60
2018-03-20T10:56:59.267Z,4.83
2018-03-20T10:59:28.730Z,4.77
2018-03-20T11:02:03.819Z,3.80
2018-03-20T11:04:33.269Z,5.57
2018-03-20T11:07:01.590Z,2.73
2018-03-20T11:09:29.968Z,4.73
2018-03-20T11:11:58.297Z,4.23
2018-03-20T11:14:28.268Z,3.93
2018-03-20T11:16:58.235Z,4.67
2018-03-20T11:19:28.271Z,2.30
2018-03-20T11:21:58.872Z,4.03
2018-03-20T11:24:29.556Z,3.53
2018-03-20T11:27:06.482Z,3.27
2018-03-20T11:29:55.268Z,3.43
2018-03-20T11:32:24.110Z,6.17
2018-03-20T11:34:59.777Z,3.53
2018-03-20T11:37:28.267Z,5.27
2018-03-20T11:39:56.609Z,4.07
2018-03-20T11:42:25.689Z,6.03
2018-03-20T11:44:54.058Z,3.70
2018-03-20T11:47:25.983Z,5.53
2018-03-20T11:49:56.008Z,4.47
2018-03-20T11:52:25.147Z,6.60
2018-03-20T11:54:54.330Z,2.40
2018-03-20T11:57:23.586Z,5.23
2018-03-20T11:59:54.178Z,3.70
2018-03-20T12:02:27.126Z,3.10
2018-03-20T12:04:57.432Z,3.93
2018-03-20T12:07:27.620Z,2.33
2018-03-20T12:09:55.972Z,2.30
2018-03-20T12:12:25.250Z,3.03
2018-03-20T12:14:55.581Z,3.23
2018-03-20T12:17:29.907Z,3.53
2018-03-20T12:20:01.023Z,1.77
2018-03-20T12:22:30.160Z,3.73
2018-03-20T12:24:58.643Z,4.73
2018-03-20T12:27:28.008Z,4.03
2018-03-20T12:29:56.393Z,3.27
2018-03-20T12:32:24.728Z,5.23
2018-03-20T12:34:53.211Z,4.23
2018-03-20T12:37:22.520Z,3.40
2018-03-20T12:39:51.052Z,3.07
2018-03-20T12:42:20.365Z,3.73
2018-03-20T12:44:51.021Z,2.90
2018-03-20T12:47:20.249Z,3.23
2018-03-20T12:49:51.904Z,7.57
2018-03-20T12:52:22.136Z,2.50
2018-03-20T12:54:51.892Z,4.70
2018-03-20T12:57:20.501Z,7.27
2018-03-20T12:59:49.123Z,2.93
2018-03-20T13:02:21.293Z,3.13
2018-03-20T13:04:50.819Z,3.40
2018-03-20T13:07:22.955Z,2.73
2018-03-20T13:09:55.857Z,2.70
2018-03-20T13:12:30.601Z,3.73
2018-03-20T13:15:02.722Z,3.70
2018-03-20T13:17:36.396Z,4.30
2018-03-20T13:20:06.126Z,3.10
2018-03-20T13:22:34.679Z,3.20
2018-03-20T13:25:06.274Z,4.57
2018-03-20T13:27:40.311Z,5.17
2018-03-20T13:30:14.325Z,2.57
2018-03-20T13:32:43.782Z,3.10
2018-03-20T13:35:13.066Z,2.13
2018-03-20T13:37:44.982Z,2.17
2018-03-20T13:40:16.938Z,3.07
2018-03-20T13:42:47.178Z,3.53
2018-03-20T13:45:17.345Z,2.33
2018-03-20T13:47:47.529Z,2.67
2018-03-20T13:53:12.196Z,5.40
2018-03-20T13:55:41.267Z,3.20
2018-03-20T13:58:11.120Z,3.13
2018-03-20T14:00:44.255Z,4.97
2018-03-20T14:03:14.138Z,2.80
2018-03-20T14:05:44.732Z,2.30
2018-03-20T14:11:09.586Z,4.43
2018-03-20T14:13:37.989Z,3.07
2018-03-20T14:19:04.810Z,3.53
2018-03-20T14:21:34.107Z,2.97
2018-03-20T14:24:03.501Z,5.83
2018-03-20T14:26:32.887Z,3.00
2018-03-20T14:29:02.607Z,4.70
2018-03-20T14:31:37.221Z,3.83
2018-03-20T14:34:08.134Z,3.70
2018-03-20T14:36:37.547Z,3.17
2018-03-20T14:39:06.689Z,4.43
2018-03-20T14:41:35.728Z,2.90
2018-03-20T14:44:04.623Z,3.50
2018-03-20T14:46:33.929Z,4.87
2018-03-20T14:49:03.389Z,3.63
2018-03-20T14:51:32.757Z,1.90
2018-03-20T14:54:01.849Z,3.60
2018-03-20T14:56:32.205Z,3.53
2018-03-20T14:59:02.121Z,4.23
2018-03-20T15:01:31.844Z,3.63
2018-03-20T15:04:00.257Z,3.10
2018-03-20T15:06:28.681Z,3.53
2018-03-20T15:08:57.096Z,3.83
2018-03-20T15:11:25.502Z,5.73
2018-03-20T15:13:53.905Z,3.43
2018-03-20T15:16:22.311Z,3.03
2018-03-20T15:18:51.493Z,3.60
2018-03-20T15:21:19.874Z,2.83
2018-03-20T15:23:48.242Z,5.10
2018-03-20T15:26:16.652Z,4.10
2018-03-20T15:28:48.060Z,5.07
2018-03-20T15:31:16.474Z,5.03
2018-03-20T15:33:44.936Z,2.87
2018-03-20T15:36:13.309Z,3.20
2018-03-20T15:38:41.726Z,5.93
2018-03-20T15:41:10.166Z,3.87
2018-03-20T15:43:38.562Z,2.70
2018-03-20T15:46:06.956Z,6.70
2018-03-20T15:48:36.086Z,5.17
2018-03-20T15:51:04.532Z,5.43
2018-03-20T15:53:32.958Z,6.27
2018-03-20T15:56:02.349Z,3.70
2018-03-20T15:58:30.729Z,4.30
2018-03-20T16:00:59.117Z,4.00
2018-03-20T16:03:27.532Z,2.63
2018-03-20T16:05:55.965Z,3.33
2018-03-20T16:08:24.341Z,4.37
2018-03-20T16:10:52.736Z,3.70
2018-03-20T16:13:21.108Z,2.57
2018-03-20T16:15:49.558Z,3.50
2018-03-20T16:18:17.954Z,2.23
2018-03-20T16:20:46.366Z,2.10
2018-03-20T16:23:14.781Z,5.63
2018-03-20T16:25:43.226Z,5.23
2018-03-20T16:28:11.650Z,2.70
2018-03-20T16:30:39.996Z,3.93
2018-03-20T16:33:09.159Z,2.83
2018-03-20T16:35:37.530Z,3.70
2018-03-20T16:38:05.949Z,3.87
2018-03-20T16:40:35.132Z,3.77
2018-03-20T16:43:03.516Z,3.53
2018-03-20T16:45:32.742Z,4.00
2018-03-20T16:48:02.148Z,2.70
2018-03-20T16:50:30.550Z,1.93
2018-03-20T16:52:58.957Z,1.73
2018-03-20T16:55:33.074Z,4.43
2018-03-20T16:58:03.635Z,2.57
2018-03-20T17:00:33.712Z,4.63
2018-03-20T17:03:03.642Z,6.33
2018-03-20T17:05:33.317Z,2.73
2018-03-20T17:08:06.946Z,5.80
2018-03-20T17:10:36.614Z,3.73
2018-03-20T17:13:05.029Z,2.90
2018-03-20T17:15:33.440Z,2.67
2018-03-20T17:18:01.862Z,2.07
2018-03-20T17:20:30.292Z,4.53
2018-03-20T17:22:59.457Z,2.83
2018-03-20T17:25:27.867Z,4.30
2018-03-20T17:27:56.223Z,2.67
2018-03-20T17:30:24.611Z,2.93
2018-03-20T17:32:53.798Z,2.57
2018-03-20T17:35:22.994Z,3.07
2018-03-20T17:37:51.387Z,3.40
2018-03-20T17:40:20.512Z,4.47
2018-03-20T17:42:48.917Z,3.70
2018-03-20T17:45:17.296Z,2.43
2018-03-20T17:47:45.689Z,4.30
2018-03-20T17:50:14.083Z,3.77
2018-03-20T17:52:43.231Z,4.00
2018-03-20T17:55:11.629Z,3.93
2018-03-20T17:57:39.976Z,2.50
2018-03-20T18:00:08.444Z,3.10
2018-03-20T18:02:36.847Z,4.47
2018-03-20T18:05:05.243Z,4.00
2018-03-20T18:07:33.627Z,2.77
2018-03-20T18:10:02.045Z,4.00
2018-03-20T18:12:30.454Z,4.13
2018-03-20T18:14:58.801Z,2.70
2018-03-20T18:17:27.239Z,3.50
2018-03-20T18:19:55.615Z,3.77
2018-03-20T18:22:24.010Z,2.87
2018-03-20T18:24:52.391Z,2.30
2018-03-20T18:27:21.530Z,3.53
2018-03-20T18:29:49.876Z,5.17
2018-03-20T18:32:18.297Z,4.77
2018-03-20T18:34:46.707Z,3.67
2018-03-20T18:37:15.047Z,4.13
2018-03-20T18:39:43.427Z,2.77
2018-03-20T18:42:11.784Z,3.37
2018-03-20T18:44:40.199Z,5.23
2018-03-20T18:47:08.569Z,2.30
2018-03-20T18:49:36.930Z,4.33
2018-03-20T18:52:05.374Z,4.20
2018-03-20T18:54:34.500Z,3.87
2018-03-20T18:57:02.848Z,4.30
2018-03-20T18:59:31.993Z,4.27
2018-03-20T19:02:00.354Z,4.70
2018-03-20T19:04:28.782Z,4.93
2018-03-20T19:06:57.145Z,3.37
2018-03-20T19:09:25.516Z,5.47
2018-03-20T19:11:54.737Z,3.30
2018-03-20T19:14:23.122Z,2.57
2018-03-20T19:16:52.258Z,2.80
2018-03-20T19:19:20.670Z,4.17
2018-03-20T19:21:49.042Z,6.40
2018-03-20T19:24:17.393Z,5.00
2018-03-20T19:26:45.805Z,4.30
2018-03-20T19:29:14.165Z,4.30
2018-03-20T19:31:42.572Z,2.67
2018-03-20T19:34:10.964Z,4.17
2018-03-20T19:36:40.155Z,5.57
2018-03-20T19:39:09.290Z,3.17
2018-03-20T19:41:37.765Z,4.50
2018-03-20T19:44:06.146Z,4.77
2018-03-20T19:46:34.557Z,2.23
2018-03-20T19:49:02.954Z,3.17
2018-03-20T19:51:31.312Z,5.27
2018-03-20T19:53:59.721Z,4.67
2018-03-20T19:56:28.879Z,2.53
2018-03-20T19:58:57.268Z,2.93
2018-03-20T20:01:25.688Z,2.90
2018-03-20T20:03:54.110Z,5.47
2018-03-20T20:06:22.526Z,6.90
2018-03-20T20:08:51.675Z,5.50
2018-03-20T20:11:20.064Z,5.13
2018-03-20T20:13:48.429Z,4.83
2018-03-20T20:16:16.843Z,5.93
2018-03-20T20:18:45.218Z,4.60
2018-03-20T20:21:13.588Z,5.13
2018-03-20T20:23:41.996Z,5.43
2018-03-20T20:26:11.123Z,6.37
2018-03-20T20:28:39.518Z,5.47
2018-03-20T20:31:08.518Z,4.87
2018-03-20T20:33:36.935Z,7.07
2018-03-20T20:36:06.045Z,4.70
2018-03-20T20:38:35.232Z,5.63
2018-03-20T20:41:04.364Z,4.23
2018-03-20T20:43:32.729Z,6.57
2018-03-20T20:46:01.896Z,3.63
2018-03-20T20:48:31.023Z,6.03
2018-03-20T20:50:59.395Z,7.57
2018-03-20T20:53:27.797Z,6.33
2018-03-20T20:55:56.182Z,6.37
2018-03-20T20:58:24.542Z,3.57
2018-03-20T21:00:52.923Z,6.43
2018-03-20T21:03:22.063Z,6.70
2018-03-20T21:05:50.456Z,6.17
2018-03-20T21:08:19.587Z,5.93
2018-03-20T21:10:47.957Z,7.03
2018-03-20T21:13:16.403Z,8.43
2018-03-20T21:15:44.768Z,6.00
2018-03-20T21:18:13.138Z,8.03
2018-03-20T21:20:41.526Z,5.30
2018-03-20T21:23:09.909Z,4.93
2018-03-20T21:25:38.314Z,8.97
2018-03-20T21:28:06.739Z,5.07
2018-03-20T21:30:35.144Z,6.90
2018-03-20T21:33:04.306Z,4.97
2018-03-20T21:35:32.692Z,9.90
2018-03-20T21:38:01.161Z,3.87
2018-03-20T21:40:32.321Z,6.00
2018-03-20T21:43:02.922Z,4.80
2018-03-20T21:45:33.196Z,6.03
2018-03-20T21:48:06.479Z,8.80
2018-03-20T21:50:41.901Z,4.80
2018-03-20T21:53:12.746Z,4.20
2018-03-20T21:55:43.045Z,5.67
2018-03-20T21:58:11.632Z,6.13
2018-03-20T22:00:42.474Z,6.63
2018-03-20T22:03:11.506Z,5.50
2018-03-20T22:05:40.704Z,5.73
2018-03-20T22:08:12.467Z,7.70
2018-03-20T22:10:43.801Z,6.57
2018-03-20T22:13:14.316Z,5.40
2018-03-20T22:15:44.895Z,7.87
2018-03-20T22:18:30.575Z,8.57
2018-03-20T22:21:08.206Z,5.70
2018-03-20T22:23:37.916Z,9.97
2018-03-20T22:26:06.278Z,11.10
2018-03-20T22:28:34.680Z,6.50
2018-03-20T22:31:03.067Z,10.73
2018-03-20T22:33:31.436Z,7.17
2018-03-20T22:36:00.746Z,6.33
2018-03-20T22:38:29.151Z,11.40
2018-03-20T22:40:58.442Z,6.53
2018-03-20T22:43:27.572Z,8.23
2018-03-20T22:45:55.957Z,11.27
2018-03-20T22:48:24.381Z,9.23
2018-03-20T22:50:53.512Z,10.17
2018-03-20T22:53:21.903Z,6.23
2018-03-20T22:55:50.309Z,9.37
2018-03-20T22:58:18.675Z,11.43
2018-03-20T23:00:51.246Z,7.57
2018-03-20T23:03:19.612Z,8.27
2018-03-20T23:05:48.018Z,10.43
2018-03-20T23:08:17.661Z,6.53
2018-03-20T23:10:48.814Z,9.43
2018-03-20T23:13:19.729Z,7.77
2018-03-20T23:15:52.751Z,7.97
2018-03-20T23:18:21.820Z,7.77
2018-03-20T23:20:53.109Z,8.47
2018-03-20T23:23:23.416Z,7.23
2018-03-20T23:25:53.878Z,10.13
2018-03-20T23:28:23.981Z,10.50
2018-03-20T23:30:54.349Z,11.30
2018-03-20T23:33:25.660Z,8.20
2018-03-20T23:35:55.740Z,9.00
2018-03-20T23:38:27.384Z,11.00
2018-03-20T23:40:57.803Z,15.30
2018-03-20T23:43:27.649Z,10.87
2018-03-20T23:45:57.297Z,7.33
2018-03-20T23:48:27.880Z,10.30
2018-03-20T23:50:56.994Z,13.10
2018-03-20T23:53:42.178Z,13.23
2018-03-20T23:56:10.623Z,10.33
2018-03-20T23:58:39.711Z,13.60
